Hubert, North Carolina
Current Conditions -  °F | °C
As of 7:56 PM on Friday 19 Dec 2014 (Local Time) from KNCA Reporting Station
Clear Clear  
Wind Chill: 46°   Ceiling: Unl
Heat Index: 46°   Visibility: 10mi
Dew Point: 32°   Wind: 3mph
Humidity: 58%   Direction: 20°NNE
Pressure: 30.18"   Gusts: NA
Location:  34.71°N, 77.25°W
Report Text: KNCA 200056Z AUTO 02003KT 10SM CLR 08/00 A3018 RMK AO2 SLP222 T00780000
Loading
Personal Weather Stations






























Interactive Weather Map New forecast layout! Learn more

10-Day Weather Forecast

Advertisements
Track Severe Weather on mobile